Sabin, Minnesota
Current Conditions -  °F | °C
As of 1:54 AM on Friday 24 Oct 2014 (Local Time) from KJKJ Reporting Station
Clear Clear  
Wind Chill: 45°   Ceiling: Unl
Heat Index: 48°   Visibility: 10mi
Dew Point: 45°   Wind: 7mph
Humidity: 87%   Direction: 180°S
Pressure: 29.83"   Gusts: NA
Location:  46.78°N, 96.65°W
Report Text: KJKJ 240654Z AUTO 18006KT 10SM CLR 09/07 A2983 RMK AO2
Loading
Personal Weather Stations






























Interactive Weather Map
Tropical Storm Tracking
New forecast layout! Learn more

10-Day Weather Forecast

Advertisements
Track Severe Weather on mobile